createdAt,value
2023-05-05T00:02:19.693Z,101448.75
2023-05-05T00:04:47.928Z,101455.88
2023-05-05T00:07:15.701Z,101448.75
2023-05-05T00:09:43.994Z,101441.53
2023-05-05T00:12:12.926Z,101450.34
2023-05-05T00:14:40.680Z,101445.41
2023-05-05T00:17:08.449Z,101442.63
2023-05-05T00:19:38.072Z,101445.38
2023-05-05T00:22:06.001Z,101451.69
2023-05-05T00:24:33.781Z,101446.47
2023-05-05T00:27:02.547Z,101441.78
2023-05-05T00:29:30.488Z,101441.47
2023-05-05T00:31:58.265Z,101434.84
2023-05-05T00:34:27.161Z,101433.75
2023-05-05T00:36:56.278Z,101430.69
2023-05-05T00:39:24.254Z,101435.63
2023-05-05T00:41:54.569Z,101429.31
2023-05-05T00:44:37.153Z,101426.84
2023-05-05T00:47:05.513Z,101428.47
2023-05-05T00:49:34.675Z,101426.28
2023-05-05T00:52:05.539Z,101419.69
2023-05-05T00:54:34.498Z,101429.28
2023-05-05T00:57:02.844Z,101420.47
2023-05-05T00:59:32.007Z,101418.81
2023-05-05T01:01:59.904Z,101428.16
2023-05-05T01:04:28.272Z,101417.72
2023-05-05T01:07:10.060Z,101424.31
2023-05-05T01:09:45.639Z,101418.53
2023-05-05T01:12:25.693Z,101413.03
2023-05-05T01:15:02.881Z,101417.19
2023-05-05T01:17:38.826Z,101421.28
2023-05-05T01:20:17.202Z,101418.53
2023-05-05T01:22:52.574Z,101417.16
2023-05-05T01:25:37.035Z,101414.69
2023-05-05T01:28:29.113Z,101417.72
2023-05-05T01:31:24.938Z,101416.84
2023-05-05T01:34:02.004Z,101409.94
2023-05-05T01:36:35.774Z,101410.72
2023-05-05T01:39:06.175Z,101416.72
2023-05-05T01:41:41.000Z,101412.34
2023-05-05T01:44:11.709Z,101409.84
2023-05-05T01:46:39.330Z,101412.31
2023-05-05T01:49:10.969Z,101410.91
2023-05-05T01:51:40.730Z,101407.31
2023-05-05T01:54:09.762Z,101408.41
2023-05-05T01:56:41.006Z,101412.53
2023-05-05T01:59:09.927Z,101408.03
2023-05-05T02:01:44.996Z,101402.19
2023-05-05T02:04:15.317Z,101408.41
2023-05-05T02:06:46.717Z,101403.22
2023-05-05T02:09:16.021Z,101398.50
2023-05-05T02:11:44.369Z,101400.44
2023-05-05T02:14:13.815Z,101398.19
2023-05-05T02:16:43.374Z,101400.66
2023-05-05T02:19:12.508Z,101393.72
2023-05-05T02:21:42.470Z,101395.63
2023-05-05T02:24:10.442Z,101392.84
2023-05-05T02:26:41.087Z,101398.03
2023-05-05T02:29:15.329Z,101396.94
2023-05-05T02:31:46.736Z,101397.25
2023-05-05T02:34:17.927Z,101392.59
2023-05-05T02:36:48.779Z,101395.88
2023-05-05T02:39:29.280Z,101397.47
2023-05-05T02:42:00.233Z,101397.47
2023-05-05T02:44:30.930Z,101393.56
2023-05-05T02:46:59.473Z,101395.19
2023-05-05T02:49:27.271Z,101393.00
2023-05-05T02:51:58.418Z,101394.63
2023-05-05T02:54:26.309Z,101396.81
2023-05-05T02:56:56.288Z,101405.34
2023-05-05T02:59:32.974Z,101404.25
2023-05-05T03:02:12.105Z,101392.75
2023-05-05T03:04:42.847Z,101393.00
2023-05-05T03:07:16.598Z,101391.88
2023-05-05T03:09:48.499Z,101397.94
2023-05-05T03:12:22.212Z,101394.63
2023-05-05T03:14:52.660Z,101391.38
2023-05-05T03:17:22.978Z,101386.44
2023-05-05T03:19:52.136Z,101390.22
2023-05-05T03:22:21.530Z,101393.19
2023-05-05T03:24:52.662Z,101391.00
2023-05-05T03:27:21.181Z,101389.66
2023-05-05T03:29:48.931Z,101397.63
2023-05-05T03:32:17.447Z,101393.50
2023-05-05T03:34:45.169Z,101392.09
2023-05-05T03:37:12.814Z,101396.25
2023-05-05T03:39:42.221Z,101392.88
2023-05-05T03:42:09.945Z,101403.00
2023-05-05T03:44:37.639Z,101406.53
2023-05-05T03:47:06.822Z,101409.53
2023-05-05T03:49:34.629Z,101405.09
2023-05-05T03:52:02.764Z,101406.94
2023-05-05T03:54:31.587Z,101396.03
2023-05-05T03:57:00.595Z,101396.41
2023-05-05T03:59:28.744Z,101393.66
2023-05-05T04:01:57.100Z,101399.19
2023-05-05T04:04:24.974Z,101393.47
2023-05-05T04:06:53.876Z,101392.41
2023-05-05T04:09:21.603Z,101398.22
2023-05-05T04:11:49.331Z,101398.78
2023-05-05T04:14:18.816Z,101391.41
2023-05-05T04:16:46.506Z,101400.78
2023-05-05T04:19:14.163Z,101395.53
2023-05-05T04:21:42.226Z,101395.59
2023-05-05T04:24:10.281Z,101403.03
2023-05-05T04:26:37.982Z,101397.34
2023-05-05T04:29:07.012Z,101401.72
2023-05-05T04:31:36.165Z,101406.38
2023-05-05T04:34:04.429Z,101407.22
2023-05-05T04:36:32.121Z,101404.19
2023-05-05T04:38:59.879Z,101411.91
2023-05-05T04:41:30.026Z,101417.69
2023-05-05T04:43:57.932Z,101422.44
2023-05-05T04:46:26.209Z,101427.47
2023-05-05T04:48:56.485Z,101425.81
2023-05-05T04:51:24.536Z,101429.38
2023-05-05T04:53:52.226Z,101426.34
2023-05-05T04:56:20.341Z,101429.97
2023-05-05T04:58:48.065Z,101433.53
2023-05-05T05:01:16.187Z,101439.34
2023-05-05T05:03:44.066Z,101440.38
2023-05-05T05:06:14.393Z,101443.44
2023-05-05T05:08:42.306Z,101446.19
2023-05-05T05:11:10.238Z,101453.59
2023-05-05T05:13:38.317Z,101442.16
2023-05-05T05:16:07.637Z,101450.06
2023-05-05T05:18:36.615Z,101442.41
2023-05-05T05:21:04.649Z,101450.63
2023-05-05T05:23:33.760Z,101451.72
2023-05-05T05:26:02.410Z,101450.41
2023-05-05T05:28:30.523Z,101458.38
2023-05-05T05:30:58.912Z,101463.63
2023-05-05T05:33:26.626Z,101462.34
2023-05-05T05:35:54.586Z,101453.56
2023-05-05T05:38:22.340Z,101461.03
2023-05-05T05:40:51.320Z,101465.09
2023-05-05T05:43:19.325Z,101459.06
2023-05-05T05:45:47.222Z,101459.94
2023-05-05T05:48:16.241Z,101457.72
2023-05-05T05:50:43.869Z,101463.53
2023-05-05T05:53:11.977Z,101467.41
2023-05-05T05:55:39.618Z,101466.34
2023-05-05T05:58:09.094Z,101473.47
2023-05-05T06:00:36.790Z,101474.34
2023-05-05T06:03:05.067Z,101477.09
2023-05-05T06:05:33.579Z,101475.94
2023-05-05T06:08:02.292Z,101463.34
2023-05-05T06:10:31.498Z,101470.72
2023-05-05T06:12:59.332Z,101466.66
2023-05-05T06:15:28.796Z,101475.53
2023-05-05T06:17:56.592Z,101470.59
2023-05-05T06:20:24.807Z,101469.56
2023-05-05T06:22:52.788Z,101471.22
2023-05-05T06:25:20.482Z,101476.72
2023-05-05T06:27:49.259Z,101478.06
2023-05-05T06:30:17.710Z,101484.44
2023-05-05T06:32:47.179Z,101472.31
2023-05-05T06:35:14.917Z,101476.72
2023-05-05T06:37:44.000Z,101474.53
2023-05-05T06:40:12.649Z,101477.06
2023-05-05T06:42:40.321Z,101468.78
2023-05-05T06:45:09.183Z,101476.50
2023-05-05T06:47:38.759Z,101471.03
2023-05-05T06:50:10.489Z,101486.44
2023-05-05T06:52:38.690Z,101485.38
2023-05-05T06:55:07.338Z,101486.78
2023-05-05T06:57:35.069Z,101481.81
2023-05-05T07:00:06.143Z,101479.31
2023-05-05T07:02:34.129Z,101473.28
2023-05-05T07:05:01.905Z,101474.13
2023-05-05T07:07:33.416Z,101474.69
2023-05-05T07:10:01.305Z,101476.91
2023-05-05T07:12:31.378Z,101475.25
2023-05-05T07:14:59.968Z,101478.25
2023-05-05T07:17:28.392Z,101485.44
2023-05-05T07:19:56.108Z,101491.50
2023-05-05T07:22:24.379Z,101492.03
2023-05-05T07:24:53.827Z,101482.66
2023-05-05T07:27:23.588Z,101492.59
2023-05-05T07:29:51.396Z,101502.19
2023-05-05T07:32:19.539Z,101488.44
2023-05-05T07:34:47.252Z,101488.16
2023-05-05T07:37:14.920Z,101505.25
2023-05-05T07:39:43.360Z,101501.09
2023-05-05T07:42:12.493Z,101499.72
2023-05-05T07:44:40.242Z,101508.25
2023-05-05T07:47:09.077Z,101509.34
2023-05-05T07:49:36.807Z,101503.53
2023-05-05T07:52:04.899Z,101510.97
2023-05-05T07:54:33.699Z,101506.56
2023-05-05T07:57:01.788Z,101507.91
2023-05-05T07:59:30.991Z,101510.34
2023-05-05T08:01:59.147Z,101508.97
2023-05-05T08:04:26.967Z,101510.91
2023-05-05T08:06:54.723Z,101516.41
2023-05-05T08:09:23.613Z,101501.44
2023-05-05T08:11:51.629Z,101512.44
2023-05-05T08:14:19.695Z,101499.69
2023-05-05T08:16:48.828Z,101501.88
2023-05-05T08:19:28.318Z,101490.25
2023-05-05T08:21:58.873Z,101487.88
2023-05-05T08:24:27.800Z,101486.03
2023-05-05T08:26:56.641Z,101487.06
2023-05-05T08:29:25.351Z,101492.78
2023-05-05T08:31:55.779Z,101487.78
2023-05-05T08:34:23.840Z,101480.44
2023-05-05T08:36:51.920Z,101477.94
2023-05-05T08:39:20.033Z,101475.81
2023-05-05T08:41:47.795Z,101481.84
2023-05-05T08:44:15.652Z,101474.03
2023-05-05T08:46:44.495Z,101476.03
2023-05-05T08:49:16.750Z,101480.91
2023-05-05T08:51:47.031Z,101479.94
2023-05-05T08:54:18.217Z,101485.72
2023-05-05T08:56:48.470Z,101482.47
2023-05-05T08:59:16.915Z,101491.59
2023-05-05T09:01:45.825Z,101484.78
2023-05-05T09:04:15.771Z,101483.69
2023-05-05T09:06:43.455Z,101487.00
2023-05-05T09:09:11.668Z,101487.28
2023-05-05T09:11:41.816Z,101485.16
2023-05-05T09:14:09.494Z,101483.88
2023-05-05T09:16:37.646Z,101474.03
2023-05-05T09:19:06.144Z,101483.63
2023-05-05T09:21:35.139Z,101487.06
2023-05-05T09:24:10.287Z,101488.59
2023-05-05T09:26:39.871Z,101488.72
2023-05-05T09:29:07.740Z,101496.91
2023-05-05T09:31:38.395Z,101495.56
2023-05-05T09:34:15.447Z,101494.88
2023-05-05T09:36:48.166Z,101484.66
2023-05-05T09:39:17.897Z,101495.06
2023-05-05T09:41:46.820Z,101489.91
2023-05-05T09:44:17.483Z,101492.13
2023-05-05T09:46:52.977Z,101481.78
2023-05-05T09:49:24.507Z,101477.75
2023-05-05T09:51:54.465Z,101472.34
2023-05-05T09:54:26.784Z,101483.53
2023-05-05T09:56:55.166Z,101480.22
2023-05-05T09:59:23.693Z,101478.56
2023-05-05T10:01:52.765Z,101480.47
2023-05-05T10:04:25.314Z,101479.34
2023-05-05T10:06:55.878Z,101484.44
2023-05-05T10:09:23.419Z,101483.22
2023-05-05T10:11:51.587Z,101488.97
2023-05-05T10:14:21.267Z,101477.03
2023-05-05T10:16:50.827Z,101470.44
2023-05-05T10:19:19.983Z,101481.75
2023-05-05T10:21:50.389Z,101482.28
2023-05-05T10:24:25.752Z,101471.50
2023-05-05T10:26:54.862Z,101474.44
2023-05-05T10:29:32.368Z,101465.41
2023-05-05T10:32:21.448Z,101465.22
2023-05-05T10:34:54.664Z,101461.19
2023-05-05T10:37:22.883Z,101460.19
2023-05-05T10:39:53.768Z,101455.72
2023-05-05T10:42:23.839Z,101457.91
2023-05-05T10:44:51.625Z,101447.53
2023-05-05T10:47:21.295Z,101453.84
2023-05-05T10:49:57.337Z,101447.84
2023-05-05T10:52:39.270Z,101449.00
2023-05-05T10:55:15.204Z,101448.22
2023-05-05T10:57:45.203Z,101463.31
2023-05-05T11:00:52.449Z,101455.78
2023-05-05T11:03:24.228Z,101450.88
2023-05-05T11:06:12.855Z,101457.22
2023-05-05T11:08:42.284Z,101452.16
2023-05-05T11:11:13.330Z,101452.97
2023-05-05T11:13:41.872Z,101445.28
2023-05-05T11:16:45.100Z,101442.63
2023-05-05T11:19:47.224Z,101444.03
2023-05-05T11:22:16.404Z,101436.03
2023-05-05T11:24:45.155Z,101434.50
2023-05-05T11:27:14.204Z,101430.72
2023-05-05T11:30:07.808Z,101430.41
2023-05-05T11:32:36.008Z,101422.03
2023-05-05T11:35:04.058Z,101424.38
2023-05-05T11:37:32.191Z,101430.09
2023-05-05T11:40:08.677Z,101418.19
2023-05-05T11:42:38.660Z,101423.78
2023-05-05T11:45:21.715Z,101415.44
2023-05-05T11:47:50.049Z,101409.19
2023-05-05T11:50:19.890Z,101423.97
2023-05-05T11:52:48.567Z,101410.03
2023-05-05T11:55:24.305Z,101405.47
2023-05-05T11:57:53.806Z,101417.25
2023-05-05T12:00:32.060Z,101407.94
2023-05-05T12:03:00.282Z,101408.22
2023-05-05T12:05:28.164Z,101399.06
2023-05-05T12:07:59.940Z,101391.19
2023-05-05T12:10:29.809Z,101394.63
2023-05-05T12:12:59.316Z,101389.34
2023-05-05T12:15:31.629Z,101378.50
2023-05-05T12:18:02.148Z,101369.44
2023-05-05T12:20:32.710Z,101375.13
2023-05-05T12:23:01.807Z,101377.25
2023-05-05T12:25:37.136Z,101380.78
2023-05-05T12:28:07.077Z,101381.91
2023-05-05T12:30:35.536Z,101375.66
2023-05-05T12:33:05.334Z,101368.72
2023-05-05T12:35:34.629Z,101371.84
2023-05-05T12:38:02.506Z,101358.72
2023-05-05T12:40:47.715Z,101356.75
2023-05-05T12:43:31.077Z,101366.59
2023-05-05T12:46:07.240Z,101363.84
2023-05-05T12:48:36.111Z,101369.19
2023-05-05T12:51:19.446Z,101368.16
2023-05-05T12:53:47.876Z,101365.50
2023-05-05T12:56:35.583Z,101373.00
2023-05-05T12:59:06.924Z,101356.31
2023-05-05T13:01:35.656Z,101357.53
2023-05-05T13:04:09.008Z,101363.47
2023-05-05T13:06:37.751Z,101359.25
2023-05-05T13:09:06.056Z,101362.91
2023-05-05T13:11:37.856Z,101351.53
2023-05-05T13:14:08.316Z,101345.38
2023-05-05T13:16:35.916Z,101338.84
2023-05-05T13:19:03.890Z,101339.34
2023-05-05T13:21:31.629Z,101332.00
2023-05-05T13:24:18.297Z,101322.09
2023-05-05T13:26:47.662Z,101326.66
2023-05-05T13:29:17.865Z,101333.31
2023-05-05T13:31:49.290Z,101314.91
2023-05-05T13:34:17.711Z,101313.03
2023-05-05T13:36:45.393Z,101302.91
2023-05-05T13:39:13.463Z,101302.34
2023-05-05T13:41:41.579Z,101300.63
2023-05-05T13:44:09.230Z,101307.84
2023-05-05T13:46:38.334Z,101311.31
2023-05-05T13:49:06.466Z,101308.88
2023-05-05T13:51:34.863Z,101309.56
2023-05-05T13:54:02.939Z,101296.16
2023-05-05T13:56:31.202Z,101313.28
2023-05-05T13:58:58.929Z,101302.69
2023-05-05T14:01:27.297Z,101286.50
2023-05-05T14:03:57.582Z,101291.34
2023-05-05T14:06:25.863Z,101275.63
2023-05-05T14:08:54.035Z,101277.28
2023-05-05T14:11:21.688Z,101287.88
2023-05-05T14:13:49.625Z,101279.63
2023-05-05T14:16:18.157Z,101264.94
2023-05-05T14:18:45.915Z,101273.09
2023-05-05T14:21:15.538Z,101259.72
2023-05-05T14:23:43.244Z,101255.84
2023-05-05T14:26:10.927Z,101268.19
2023-05-05T14:28:38.676Z,101268.44
2023-05-05T14:31:07.719Z,101264.44
2023-05-05T14:33:35.437Z,101259.44
2023-05-05T14:36:03.694Z,101269.00
2023-05-05T14:38:32.799Z,101259.69
2023-05-05T14:41:00.473Z,101257.72
2023-05-05T14:43:28.502Z,101267.69
2023-05-05T14:45:58.217Z,101252.56
2023-05-05T14:48:26.018Z,101255.22
2023-05-05T14:50:54.764Z,101243.47
2023-05-05T14:53:22.467Z,101249.63
2023-05-05T14:55:51.935Z,101255.81
2023-05-05T14:58:22.380Z,101256.38
2023-05-05T15:00:49.888Z,101248.75
2023-05-05T15:03:17.937Z,101237.03
2023-05-05T15:05:45.597Z,101236.78
2023-05-05T15:08:14.757Z,101249.88
2023-05-05T15:10:42.438Z,101244.84
2023-05-05T15:13:11.527Z,101239.56
2023-05-05T15:15:39.788Z,101243.31
2023-05-05T15:18:07.577Z,101249.25
2023-05-05T15:20:35.532Z,101238.28
2023-05-05T15:23:04.332Z,101237.94
2023-05-05T15:25:32.101Z,101236.94
2023-05-05T15:28:00.733Z,101232.19
2023-05-05T15:30:30.022Z,101244.34
2023-05-05T15:32:57.782Z,101233.53
2023-05-05T15:35:25.830Z,101233.19
2023-05-05T15:37:54.712Z,101237.81
2023-05-05T15:40:22.718Z,101235.81
2023-05-05T15:42:50.689Z,101232.22
2023-05-05T15:45:18.619Z,101228.81
2023-05-05T15:47:47.924Z,101234.88
2023-05-05T15:50:16.253Z,101229.38
2023-05-05T15:52:43.876Z,101219.38
2023-05-05T15:55:11.757Z,101221.66
2023-05-05T15:57:40.694Z,101233.97
2023-05-05T16:00:09.485Z,101216.72
2023-05-05T16:02:37.650Z,101223.00
2023-05-05T16:05:07.425Z,101210.28
2023-05-05T16:07:35.594Z,101221.59
2023-05-05T16:10:03.467Z,101226.53
2023-05-05T16:12:31.755Z,101222.28
2023-05-05T16:14:59.675Z,101222.28
2023-05-05T16:17:27.679Z,101209.19
2023-05-05T16:19:55.827Z,101216.59
2023-05-05T16:22:25.161Z,101209.88
2023-05-05T16:24:52.774Z,101207.94
2023-05-05T16:27:20.412Z,101203.19
2023-05-05T16:29:48.359Z,101217.16
2023-05-05T16:32:16.013Z,101215.50
2023-05-05T16:34:45.238Z,101217.94
2023-05-05T16:37:13.272Z,101210.44
2023-05-05T16:39:42.515Z,101211.75
2023-05-05T16:42:10.514Z,101203.06
2023-05-05T16:44:38.201Z,101201.28
2023-05-05T16:47:06.515Z,101204.25
2023-05-05T16:49:34.146Z,101199.81
2023-05-05T16:52:01.822Z,101194.44
2023-05-05T16:54:29.829Z,101200.78
2023-05-05T16:56:58.790Z,101191.81
2023-05-05T16:59:26.787Z,101194.25
2023-05-05T17:01:54.517Z,101201.47
2023-05-05T17:04:22.528Z,101207.84
2023-05-05T17:06:50.788Z,101197.38
2023-05-05T17:09:18.667Z,101200.63
2023-05-05T17:11:46.320Z,101189.66
2023-05-05T17:14:16.582Z,101188.00
2023-05-05T17:16:44.273Z,101185.72
2023-05-05T17:19:11.968Z,101189.31
2023-05-05T17:21:39.988Z,101188.47
2023-05-05T17:24:08.669Z,101193.53
2023-05-05T17:26:36.411Z,101188.16
2023-05-05T17:29:04.439Z,101183.38
2023-05-05T17:31:33.579Z,101183.22
2023-05-05T17:34:01.631Z,101177.16
2023-05-05T17:36:29.321Z,101180.41
2023-05-05T17:38:57.331Z,101186.66
2023-05-05T17:41:25.499Z,101183.84
2023-05-05T17:43:53.428Z,101190.84
2023-05-05T17:46:21.656Z,101183.81
2023-05-05T17:48:51.083Z,101186.56
2023-05-05T17:51:18.847Z,101174.91
2023-05-05T17:53:46.877Z,101172.97
2023-05-05T17:56:14.930Z,101184.97
2023-05-05T17:58:42.569Z,101183.31
2023-05-05T18:01:13.696Z,101184.63
2023-05-05T18:03:41.965Z,101184.31
2023-05-05T18:06:11.329Z,101176.28
2023-05-05T18:08:38.982Z,101184.72
2023-05-05T18:11:07.132Z,101191.50
2023-05-05T18:13:34.859Z,101177.63
2023-05-05T18:16:02.865Z,101183.97
2023-05-05T18:18:31.115Z,101182.97
2023-05-05T18:20:58.735Z,101187.56
2023-05-05T18:23:27.785Z,101195.63
2023-05-05T18:25:55.458Z,101198.41
2023-05-05T18:28:23.204Z,101184.91
2023-05-05T18:30:51.131Z,101193.38
2023-05-05T18:33:20.131Z,101191.22
2023-05-05T18:35:48.091Z,101197.41
2023-05-05T18:38:15.709Z,101199.69
2023-05-05T18:40:46.173Z,101198.34
2023-05-05T18:43:13.712Z,101205.44
2023-05-05T18:45:41.790Z,101205.78
2023-05-05T18:48:09.929Z,101203.69
2023-05-05T18:50:38.068Z,101203.13
2023-05-05T18:53:05.922Z,101206.44
2023-05-05T18:55:33.938Z,101207.34
2023-05-05T18:58:02.962Z,101214.31
2023-05-05T19:00:30.728Z,101213.53
2023-05-05T19:02:58.908Z,101220.69
2023-05-05T19:05:27.652Z,101217.41
2023-05-05T19:07:55.327Z,101222.97
2023-05-05T19:10:23.679Z,101220.41
2023-05-05T19:12:51.398Z,101228.63
2023-05-05T19:15:21.198Z,101229.44
2023-05-05T19:17:48.913Z,101230.66
2023-05-05T19:20:16.638Z,101249.25
2023-05-05T19:22:44.779Z,101241.16
2023-05-05T19:25:14.224Z,101235.91
2023-05-05T19:27:42.757Z,101237.16
2023-05-05T19:30:11.569Z,101222.56
2023-05-05T19:32:40.590Z,101222.97
2023-05-05T19:35:11.558Z,101222.97
2023-05-05T19:37:39.978Z,101225.25
2023-05-05T19:40:09.072Z,101230.56
2023-05-05T19:42:37.289Z,101234.06
2023-05-05T19:45:05.654Z,101226.25
2023-05-05T19:47:33.389Z,101239.06
2023-05-05T19:50:02.815Z,101233.13
2023-05-05T19:52:30.465Z,101241.72
2023-05-05T19:54:58.470Z,101245.19
2023-05-05T19:57:26.685Z,101245.69
2023-05-05T19:59:54.363Z,101249.97
2023-05-05T20:02:24.374Z,101239.59
2023-05-05T20:04:52.026Z,101242.66
2023-05-05T20:07:21.450Z,101241.84
2023-05-05T20:09:49.840Z,101237.63
2023-05-05T20:12:20.223Z,101243.75
2023-05-05T20:14:47.967Z,101240.66
2023-05-05T20:17:20.269Z,101245.06
2023-05-05T20:19:48.433Z,101235.53
2023-05-05T20:22:16.607Z,101233.97
2023-05-05T20:24:45.690Z,101237.13
2023-05-05T20:27:13.324Z,101233.00
2023-05-05T20:29:41.305Z,101222.94
2023-05-05T20:32:08.998Z,101220.41
2023-05-05T20:34:38.540Z,101228.75
2023-05-05T20:37:06.244Z,101232.72
2023-05-05T20:39:33.934Z,101220.09
2023-05-05T20:42:03.612Z,101239.47
2023-05-05T20:44:31.798Z,101234.53
2023-05-05T20:46:59.521Z,101230.50
2023-05-05T20:49:27.544Z,101224.22
2023-05-05T20:51:55.297Z,101226.59
2023-05-05T20:54:22.911Z,101222.50
2023-05-05T20:56:51.723Z,101227.34
2023-05-05T20:59:20.660Z,101230.50
2023-05-05T21:01:48.724Z,101224.66
2023-05-05T21:04:16.479Z,101230.25
2023-05-05T21:06:44.424Z,101217.56
2023-05-05T21:09:12.083Z,101227.50
2023-05-05T21:11:39.753Z,101228.00
2023-05-05T21:14:08.467Z,101229.41
2023-05-05T21:16:37.581Z,101229.22
2023-05-05T21:19:05.658Z,101231.41
2023-05-05T21:21:33.755Z,101225.06
2023-05-05T21:24:02.005Z,101217.59
2023-05-05T21:26:29.713Z,101202.50
2023-05-05T21:28:57.829Z,101205.56
2023-05-05T21:31:25.491Z,101199.75
2023-05-05T21:33:54.605Z,101195.44
2023-05-05T21:36:22.907Z,101205.94
2023-05-05T21:38:50.665Z,101208.31
2023-05-05T21:41:18.762Z,101208.63
2023-05-05T21:43:46.485Z,101205.63
2023-05-05T21:46:14.426Z,101208.03
2023-05-05T21:48:42.564Z,101206.81
2023-05-05T21:51:11.587Z,101196.41
2023-05-05T21:53:40.932Z,101185.69
2023-05-05T21:56:10.240Z,101193.13
2023-05-05T21:58:38.412Z,101192.31
2023-05-05T22:01:06.164Z,101198.47
2023-05-05T22:03:35.273Z,101186.63
2023-05-05T22:06:03.861Z,101196.63
2023-05-05T22:08:32.867Z,101198.47
2023-05-05T22:11:00.972Z,101200.16
2023-05-05T22:13:28.718Z,101208.13
2023-05-05T22:15:57.448Z,101203.63
2023-05-05T22:18:25.121Z,101210.59
2023-05-05T22:20:52.977Z,101207.03
2023-05-05T22:23:21.129Z,101205.94
2023-05-05T22:25:50.400Z,101213.88
2023-05-05T22:28:18.501Z,101211.66
2023-05-05T22:30:46.352Z,101222.47
2023-05-05T22:33:14.145Z,101227.28
2023-05-05T22:35:42.978Z,101223.44
2023-05-05T22:38:10.639Z,101231.25
2023-05-05T22:40:38.329Z,101243.06
2023-05-05T22:43:07.873Z,101238.72
2023-05-05T22:45:35.746Z,101232.34
2023-05-05T22:48:04.093Z,101221.31
2023-05-05T22:50:31.873Z,101224.41
2023-05-05T22:52:59.626Z,101228.25
2023-05-05T22:55:28.573Z,101218.09
2023-05-05T22:57:56.314Z,101214.28
2023-05-05T23:00:25.993Z,101213.75
2023-05-05T23:02:53.660Z,101215.19
2023-05-05T23:05:21.586Z,101208.88
2023-05-05T23:07:49.606Z,101201.53
2023-05-05T23:10:17.388Z,101195.22
2023-05-05T23:12:45.435Z,101193.56
2023-05-05T23:15:13.302Z,101190.84
2023-05-05T23:17:43.604Z,101185.44
2023-05-05T23:20:13.164Z,101171.91
2023-05-05T23:22:40.914Z,101175.00
2023-05-05T23:25:10.125Z,101182.16
2023-05-05T23:27:39.466Z,101178.34
2023-05-05T23:30:08.847Z,101175.84
2023-05-05T23:32:36.653Z,101169.22
2023-05-05T23:35:07.831Z,101176.09
2023-05-05T23:37:35.840Z,101173.94
2023-05-05T23:40:03.579Z,101173.69
2023-05-05T23:42:31.649Z,101166.53
2023-05-05T23:44:59.366Z,101168.16
2023-05-05T23:47:27.151Z,101167.41
2023-05-05T23:49:55.193Z,101160.03
2023-05-05T23:52:24.249Z,101163.09
2023-05-05T23:54:51.919Z,101155.19
2023-05-05T23:57:19.886Z,101150.53
2023-05-05T23:59:48.021Z,101153.09
